sensor_id;sensor_type;location;lat;lon;timestamp;P1;durP1;ratioP1;P2;durP2;ratioP2
12429;SDS011;6279;42.192;24.326;2022-11-15T00:01:47;53.93;;;35.63;;
12429;SDS011;6279;42.192;24.326;2022-11-15T00:04:13;52.73;;;34.80;;
12429;SDS011;6279;42.192;24.326;2022-11-15T00:06:38;52.70;;;37.50;;
12429;SDS011;6279;42.192;24.326;2022-11-15T00:09:03;50.50;;;34.57;;
12429;SDS011;6279;42.192;24.326;2022-11-15T00:11:29;47.57;;;32.87;;
12429;SDS011;6279;42.192;24.326;2022-11-15T00:13:55;45.23;;;31.03;;
12429;SDS011;6279;42.192;24.326;2022-11-15T00:16:21;49.13;;;31.43;;
12429;SDS011;6279;42.192;24.326;2022-11-15T00:18:47;41.00;;;28.57;;
12429;SDS011;6279;42.192;24.326;2022-11-15T00:21:13;42.17;;;29.53;;
12429;SDS011;6279;42.192;24.326;2022-11-15T00:23:39;46.93;;;30.77;;
12429;SDS011;6279;42.192;24.326;2022-11-15T00:26:05;43.93;;;32.13;;
12429;SDS011;6279;42.192;24.326;2022-11-15T00:28:30;41.60;;;27.47;;
12429;SDS011;6279;42.192;24.326;2022-11-15T00:31:06;39.77;;;26.53;;
12429;SDS011;6279;42.192;24.326;2022-11-15T00:33:33;34.13;;;24.00;;
12429;SDS011;6279;42.192;24.326;2022-11-15T00:36:00;40.30;;;25.30;;
12429;SDS011;6279;42.192;24.326;2022-11-15T00:38:30;42.07;;;22.87;;
12429;SDS011;6279;42.192;24.326;2022-11-15T00:40:56;41.10;;;25.30;;
12429;SDS011;6279;42.192;24.326;2022-11-15T00:43:21;38.13;;;25.30;;
12429;SDS011;6279;42.192;24.326;2022-11-15T00:45:47;44.30;;;26.73;;
12429;SDS011;6279;42.192;24.326;2022-11-15T00:48:12;45.13;;;27.57;;
12429;SDS011;6279;42.192;24.326;2022-11-15T00:50:37;45.27;;;29.20;;
12429;SDS011;6279;42.192;24.326;2022-11-15T00:53:03;45.27;;;28.13;;
12429;SDS011;6279;42.192;24.326;2022-11-15T00:55:28;45.20;;;28.03;;
12429;SDS011;6279;42.192;24.326;2022-11-15T00:57:54;38.77;;;23.90;;
12429;SDS011;6279;42.192;24.326;2022-11-15T01:00:19;37.53;;;23.60;;
12429;SDS011;6279;42.192;24.326;2022-11-15T01:02:44;37.10;;;23.80;;
12429;SDS011;6279;42.192;24.326;2022-11-15T01:05:10;38.00;;;23.10;;
12429;SDS011;6279;42.192;24.326;2022-11-15T01:07:35;42.43;;;24.50;;
12429;SDS011;6279;42.192;24.326;2022-11-15T01:10:01;42.23;;;26.50;;
12429;SDS011;6279;42.192;24.326;2022-11-15T01:12:26;39.67;;;25.03;;
12429;SDS011;6279;42.192;24.326;2022-11-15T01:14:51;39.63;;;23.73;;
12429;SDS011;6279;42.192;24.326;2022-11-15T01:17:17;38.67;;;24.07;;
12429;SDS011;6279;42.192;24.326;2022-11-15T01:19:42;39.47;;;22.87;;
12429;SDS011;6279;42.192;24.326;2022-11-15T01:22:07;35.97;;;23.53;;
12429;SDS011;6279;42.192;24.326;2022-11-15T01:24:33;38.73;;;23.63;;
12429;SDS011;6279;42.192;24.326;2022-11-15T01:26:58;36.73;;;23.27;;
12429;SDS011;6279;42.192;24.326;2022-11-15T01:29:24;41.73;;;25.97;;
12429;SDS011;6279;42.192;24.326;2022-11-15T01:31:49;42.67;;;24.90;;
12429;SDS011;6279;42.192;24.326;2022-11-15T01:34:14;45.83;;;26.57;;
12429;SDS011;6279;42.192;24.326;2022-11-15T01:36:40;47.93;;;29.30;;
12429;SDS011;6279;42.192;24.326;2022-11-15T01:39:05;54.77;;;32.00;;
12429;SDS011;6279;42.192;24.326;2022-11-15T01:41:31;68.90;;;38.17;;
12429;SDS011;6279;42.192;24.326;2022-11-15T01:44:31;57.83;;;35.70;;
12429;SDS011;6279;42.192;24.326;2022-11-15T01:46:55;48.60;;;31.23;;
12429;SDS011;6279;42.192;24.326;2022-11-15T01:49:21;52.77;;;30.20;;
12429;SDS011;6279;42.192;24.326;2022-11-15T01:51:48;51.40;;;31.30;;
12429;SDS011;6279;42.192;24.326;2022-11-15T01:54:15;46.83;;;30.53;;
12429;SDS011;6279;42.192;24.326;2022-11-15T01:56:49;42.87;;;27.40;;
12429;SDS011;6279;42.192;24.326;2022-11-15T01:59:18;41.67;;;26.90;;
12429;SDS011;6279;42.192;24.326;2022-11-15T02:01:44;42.30;;;26.13;;
12429;SDS011;6279;42.192;24.326;2022-11-15T02:04:17;41.50;;;26.37;;
12429;SDS011;6279;42.192;24.326;2022-11-15T02:06:51;43.47;;;26.77;;
12429;SDS011;6279;42.192;24.326;2022-11-15T02:09:17;42.83;;;27.70;;
12429;SDS011;6279;42.192;24.326;2022-11-15T02:11:42;44.73;;;28.00;;
12429;SDS011;6279;42.192;24.326;2022-11-15T02:14:10;39.90;;;26.47;;
12429;SDS011;6279;42.192;24.326;2022-11-15T02:25:04;31.27;;;21.77;;
12429;SDS011;6279;42.192;24.326;2022-11-15T02:35:43;28.50;;;19.27;;
12429;SDS011;6279;42.192;24.326;2022-11-15T02:38:40;25.80;;;18.50;;
12429;SDS011;6279;42.192;24.326;2022-11-15T02:41:15;28.73;;;19.33;;
12429;SDS011;6279;42.192;24.326;2022-11-15T02:49:12;29.63;;;19.77;;
12429;SDS011;6279;42.192;24.326;2022-11-15T02:51:42;32.00;;;20.03;;
12429;SDS011;6279;42.192;24.326;2022-11-15T02:54:43;33.23;;;21.37;;
12429;SDS011;6279;42.192;24.326;2022-11-15T02:57:05;31.70;;;19.93;;
12429;SDS011;6279;42.192;24.326;2022-11-15T03:04:58;30.70;;;19.33;;
12429;SDS011;6279;42.192;24.326;2022-11-15T03:07:28;29.03;;;19.57;;
12429;SDS011;6279;42.192;24.326;2022-11-15T03:10:06;26.13;;;17.53;;
12429;SDS011;6279;42.192;24.326;2022-11-15T03:12:43;27.60;;;18.60;;
12429;SDS011;6279;42.192;24.326;2022-11-15T03:15:27;35.10;;;20.67;;
12429;SDS011;6279;42.192;24.326;2022-11-15T03:18:00;31.63;;;20.90;;
12429;SDS011;6279;42.192;24.326;2022-11-15T03:20:30;32.37;;;20.53;;
12429;SDS011;6279;42.192;24.326;2022-11-15T03:22:57;27.70;;;19.67;;
12429;SDS011;6279;42.192;24.326;2022-11-15T03:25:28;28.23;;;18.97;;
12429;SDS011;6279;42.192;24.326;2022-11-15T03:27:57;38.90;;;22.80;;
12429;SDS011;6279;42.192;24.326;2022-11-15T03:30:26;33.63;;;21.37;;
12429;SDS011;6279;42.192;24.326;2022-11-15T03:32:56;33.93;;;20.83;;
12429;SDS011;6279;42.192;24.326;2022-11-15T03:35:27;32.07;;;20.70;;
12429;SDS011;6279;42.192;24.326;2022-11-15T03:40:29;29.90;;;20.50;;
12429;SDS011;6279;42.192;24.326;2022-11-15T03:43:03;29.47;;;19.20;;
12429;SDS011;6279;42.192;24.326;2022-11-15T03:45:36;29.30;;;18.60;;
12429;SDS011;6279;42.192;24.326;2022-11-15T03:48:16;30.40;;;19.40;;
12429;SDS011;6279;42.192;24.326;2022-11-15T03:50:46;29.17;;;19.33;;
12429;SDS011;6279;42.192;24.326;2022-11-15T03:53:13;28.07;;;19.33;;
12429;SDS011;6279;42.192;24.326;2022-11-15T03:55:38;26.57;;;18.70;;
12429;SDS011;6279;42.192;24.326;2022-11-15T03:58:04;25.73;;;18.27;;
12429;SDS011;6279;42.192;24.326;2022-11-15T04:00:32;27.77;;;19.17;;
12429;SDS011;6279;42.192;24.326;2022-11-15T04:02:57;29.53;;;19.50;;
12429;SDS011;6279;42.192;24.326;2022-11-15T04:05:23;26.67;;;19.17;;
12429;SDS011;6279;42.192;24.326;2022-11-15T04:07:48;25.20;;;17.77;;
12429;SDS011;6279;42.192;24.326;2022-11-15T04:10:14;28.30;;;18.83;;
12429;SDS011;6279;42.192;24.326;2022-11-15T04:12:40;24.63;;;17.57;;
12429;SDS011;6279;42.192;24.326;2022-11-15T04:15:12;27.00;;;17.80;;
12429;SDS011;6279;42.192;24.326;2022-11-15T04:20:08;26.07;;;17.87;;
12429;SDS011;6279;42.192;24.326;2022-11-15T04:22:55;23.00;;;16.50;;
12429;SDS011;6279;42.192;24.326;2022-11-15T04:25:39;22.30;;;15.73;;
12429;SDS011;6279;42.192;24.326;2022-11-15T04:28:05;21.80;;;15.67;;
12429;SDS011;6279;42.192;24.326;2022-11-15T04:30:31;24.03;;;16.47;;
12429;SDS011;6279;42.192;24.326;2022-11-15T04:32:56;22.40;;;15.90;;
12429;SDS011;6279;42.192;24.326;2022-11-15T04:35:22;22.57;;;17.10;;
12429;SDS011;6279;42.192;24.326;2022-11-15T04:37:47;23.57;;;15.67;;
12429;SDS011;6279;42.192;24.326;2022-11-15T04:40:13;24.67;;;16.50;;
12429;SDS011;6279;42.192;24.326;2022-11-15T04:42:40;25.50;;;16.97;;
12429;SDS011;6279;42.192;24.326;2022-11-15T04:45:06;23.97;;;17.27;;
12429;SDS011;6279;42.192;24.326;2022-11-15T04:47:32;24.90;;;16.97;;
12429;SDS011;6279;42.192;24.326;2022-11-15T04:49:57;24.57;;;17.00;;
12429;SDS011;6279;42.192;24.326;2022-11-15T04:52:22;24.17;;;16.23;;
12429;SDS011;6279;42.192;24.326;2022-11-15T04:54:48;24.87;;;17.83;;
12429;SDS011;6279;42.192;24.326;2022-11-15T04:57:13;23.63;;;17.17;;
12429;SDS011;6279;42.192;24.326;2022-11-15T04:59:39;27.23;;;19.47;;
12429;SDS011;6279;42.192;24.326;2022-11-15T05:02:04;27.17;;;19.37;;
12429;SDS011;6279;42.192;24.326;2022-11-15T05:04:30;28.77;;;20.57;;
12429;SDS011;6279;42.192;24.326;2022-11-15T05:06:55;29.63;;;20.13;;
12429;SDS011;6279;42.192;24.326;2022-11-15T05:09:23;27.17;;;19.90;;
12429;SDS011;6279;42.192;24.326;2022-11-15T05:11:49;32.10;;;19.20;;
12429;SDS011;6279;42.192;24.326;2022-11-15T05:14:14;30.77;;;20.27;;
12429;SDS011;6279;42.192;24.326;2022-11-15T05:16:40;28.70;;;19.67;;
12429;SDS011;6279;42.192;24.326;2022-11-15T05:19:06;30.50;;;17.63;;
12429;SDS011;6279;42.192;24.326;2022-11-15T05:21:32;25.53;;;17.73;;
12429;SDS011;6279;42.192;24.326;2022-11-15T05:23:58;31.97;;;20.77;;
12429;SDS011;6279;42.192;24.326;2022-11-15T05:26:23;30.77;;;20.30;;
12429;SDS011;6279;42.192;24.326;2022-11-15T05:28:56;32.83;;;21.37;;
12429;SDS011;6279;42.192;24.326;2022-11-15T05:31:23;30.33;;;20.13;;
12429;SDS011;6279;42.192;24.326;2022-11-15T05:33:49;35.87;;;23.70;;
12429;SDS011;6279;42.192;24.326;2022-11-15T05:39:07;36.73;;;23.43;;
12429;SDS011;6279;42.192;24.326;2022-11-15T05:41:35;36.97;;;22.13;;
12429;SDS011;6279;42.192;24.326;2022-11-15T05:44:05;28.23;;;20.60;;
12429;SDS011;6279;42.192;24.326;2022-11-15T05:46:31;26.03;;;19.97;;
12429;SDS011;6279;42.192;24.326;2022-11-15T05:48:58;29.57;;;20.27;;
12429;SDS011;6279;42.192;24.326;2022-11-15T05:51:24;31.07;;;21.10;;
12429;SDS011;6279;42.192;24.326;2022-11-15T05:53:54;31.07;;;19.80;;
12429;SDS011;6279;42.192;24.326;2022-11-15T05:56:21;38.57;;;20.83;;
12429;SDS011;6279;42.192;24.326;2022-11-15T05:58:46;33.63;;;22.27;;
12429;SDS011;6279;42.192;24.326;2022-11-15T06:01:12;40.80;;;24.30;;
12429;SDS011;6279;42.192;24.326;2022-11-15T06:03:37;47.27;;;24.10;;
12429;SDS011;6279;42.192;24.326;2022-11-15T06:06:02;42.93;;;23.10;;
12429;SDS011;6279;42.192;24.326;2022-11-15T06:08:28;53.30;;;29.83;;
12429;SDS011;6279;42.192;24.326;2022-11-15T06:10:53;37.33;;;26.20;;
12429;SDS011;6279;42.192;24.326;2022-11-15T06:13:19;31.93;;;21.40;;
12429;SDS011;6279;42.192;24.326;2022-11-15T06:15:44;28.93;;;18.90;;
12429;SDS011;6279;42.192;24.326;2022-11-15T06:18:10;29.03;;;19.50;;
12429;SDS011;6279;42.192;24.326;2022-11-15T06:20:35;27.97;;;20.50;;
12429;SDS011;6279;42.192;24.326;2022-11-15T06:23:03;28.83;;;22.07;;
12429;SDS011;6279;42.192;24.326;2022-11-15T06:25:29;32.67;;;22.63;;
12429;SDS011;6279;42.192;24.326;2022-11-15T06:27:56;29.77;;;20.40;;
12429;SDS011;6279;42.192;24.326;2022-11-15T06:30:22;24.60;;;16.60;;
12429;SDS011;6279;42.192;24.326;2022-11-15T06:32:49;17.43;;;13.37;;
12429;SDS011;6279;42.192;24.326;2022-11-15T06:35:14;16.83;;;13.50;;
12429;SDS011;6279;42.192;24.326;2022-11-15T06:37:40;15.87;;;11.40;;
12429;SDS011;6279;42.192;24.326;2022-11-15T06:40:07;17.07;;;11.13;;
12429;SDS011;6279;42.192;24.326;2022-11-15T06:42:34;21.37;;;11.87;;
12429;SDS011;6279;42.192;24.326;2022-11-15T06:44:59;16.03;;;11.07;;
12429;SDS011;6279;42.192;24.326;2022-11-15T06:47:25;16.93;;;10.87;;
12429;SDS011;6279;42.192;24.326;2022-11-15T06:49:50;15.77;;;11.27;;
12429;SDS011;6279;42.192;24.326;2022-11-15T06:52:16;18.60;;;12.57;;
12429;SDS011;6279;42.192;24.326;2022-11-15T06:54:43;14.20;;;11.90;;
12429;SDS011;6279;42.192;24.326;2022-11-15T06:57:09;17.37;;;12.57;;
12429;SDS011;6279;42.192;24.326;2022-11-15T06:59:34;16.43;;;12.97;;
12429;SDS011;6279;42.192;24.326;2022-11-15T07:01:59;16.93;;;12.40;;
12429;SDS011;6279;42.192;24.326;2022-11-15T07:04:25;17.00;;;12.60;;
12429;SDS011;6279;42.192;24.326;2022-11-15T07:06:50;14.40;;;12.00;;
12429;SDS011;6279;42.192;24.326;2022-11-15T07:09:16;16.47;;;12.80;;
12429;SDS011;6279;42.192;24.326;2022-11-15T07:11:41;17.73;;;13.37;;
12429;SDS011;6279;42.192;24.326;2022-11-15T07:14:06;19.03;;;14.13;;
12429;SDS011;6279;42.192;24.326;2022-11-15T07:16:32;17.50;;;12.80;;
12429;SDS011;6279;42.192;24.326;2022-11-15T07:18:57;18.87;;;14.00;;
12429;SDS011;6279;42.192;24.326;2022-11-15T07:21:23;15.90;;;13.10;;
12429;SDS011;6279;42.192;24.326;2022-11-15T07:23:48;15.13;;;12.50;;
12429;SDS011;6279;42.192;24.326;2022-11-15T07:26:14;14.30;;;12.30;;
12429;SDS011;6279;42.192;24.326;2022-11-15T07:28:39;15.17;;;12.43;;
12429;SDS011;6279;42.192;24.326;2022-11-15T07:31:06;17.57;;;13.20;;
12429;SDS011;6279;42.192;24.326;2022-11-15T07:33:32;16.77;;;12.07;;
12429;SDS011;6279;42.192;24.326;2022-11-15T07:35:58;13.03;;;11.30;;
12429;SDS011;6279;42.192;24.326;2022-11-15T07:38:26;14.33;;;11.00;;
12429;SDS011;6279;42.192;24.326;2022-11-15T07:40:56;13.67;;;11.77;;
12429;SDS011;6279;42.192;24.326;2022-11-15T07:43:22;12.87;;;10.80;;
12429;SDS011;6279;42.192;24.326;2022-11-15T07:45:48;12.53;;;11.23;;
12429;SDS011;6279;42.192;24.326;2022-11-15T07:48:13;16.50;;;12.10;;
12429;SDS011;6279;42.192;24.326;2022-11-15T07:50:41;15.60;;;12.13;;
12429;SDS011;6279;42.192;24.326;2022-11-15T07:53:07;15.03;;;11.90;;
12429;SDS011;6279;42.192;24.326;2022-11-15T07:55:34;16.83;;;13.50;;
12429;SDS011;6279;42.192;24.326;2022-11-15T07:58:03;16.57;;;14.47;;
12429;SDS011;6279;42.192;24.326;2022-11-15T08:00:29;14.37;;;12.87;;
12429;SDS011;6279;42.192;24.326;2022-11-15T08:03:08;19.17;;;14.53;;
12429;SDS011;6279;42.192;24.326;2022-11-15T08:05:35;15.90;;;13.83;;
12429;SDS011;6279;42.192;24.326;2022-11-15T08:08:02;24.57;;;13.67;;
12429;SDS011;6279;42.192;24.326;2022-11-15T08:10:28;15.23;;;13.60;;
12429;SDS011;6279;42.192;24.326;2022-11-15T08:12:57;18.07;;;14.53;;
12429;SDS011;6279;42.192;24.326;2022-11-15T08:15:27;18.50;;;13.07;;
12429;SDS011;6279;42.192;24.326;2022-11-15T08:17:56;16.40;;;14.30;;
12429;SDS011;6279;42.192;24.326;2022-11-15T08:20:22;16.93;;;13.90;;
12429;SDS011;6279;42.192;24.326;2022-11-15T08:22:48;16.03;;;13.67;;
12429;SDS011;6279;42.192;24.326;2022-11-15T08:25:13;18.17;;;14.43;;
12429;SDS011;6279;42.192;24.326;2022-11-15T08:27:39;15.07;;;13.47;;
12429;SDS011;6279;42.192;24.326;2022-11-15T08:30:04;15.97;;;13.50;;
12429;SDS011;6279;42.192;24.326;2022-11-15T08:32:30;15.13;;;13.53;;
12429;SDS011;6279;42.192;24.326;2022-11-15T08:34:56;15.67;;;13.37;;
12429;SDS011;6279;42.192;24.326;2022-11-15T08:37:21;18.03;;;13.97;;
12429;SDS011;6279;42.192;24.326;2022-11-15T08:39:47;18.17;;;14.83;;
12429;SDS011;6279;42.192;24.326;2022-11-15T08:42:12;19.10;;;14.00;;
12429;SDS011;6279;42.192;24.326;2022-11-15T08:44:39;18.83;;;14.80;;
12429;SDS011;6279;42.192;24.326;2022-11-15T08:47:05;20.77;;;15.63;;
12429;SDS011;6279;42.192;24.326;2022-11-15T08:49:30;19.07;;;16.03;;
12429;SDS011;6279;42.192;24.326;2022-11-15T08:51:56;17.23;;;15.17;;
12429;SDS011;6279;42.192;24.326;2022-11-15T08:54:21;17.67;;;15.53;;
12429;SDS011;6279;42.192;24.326;2022-11-15T08:56:47;20.00;;;15.80;;
12429;SDS011;6279;42.192;24.326;2022-11-15T08:59:12;18.43;;;14.67;;
12429;SDS011;6279;42.192;24.326;2022-11-15T09:01:38;17.27;;;15.17;;
12429;SDS011;6279;42.192;24.326;2022-11-15T09:04:03;17.30;;;15.53;;
12429;SDS011;6279;42.192;24.326;2022-11-15T09:06:29;18.03;;;16.13;;
12429;SDS011;6279;42.192;24.326;2022-11-15T09:08:55;22.07;;;15.47;;
12429;SDS011;6279;42.192;24.326;2022-11-15T09:11:21;18.07;;;15.03;;
12429;SDS011;6279;42.192;24.326;2022-11-15T09:13:48;19.33;;;16.07;;
12429;SDS011;6279;42.192;24.326;2022-11-15T09:16:14;20.70;;;15.83;;
12429;SDS011;6279;42.192;24.326;2022-11-15T09:18:40;18.47;;;15.57;;
12429;SDS011;6279;42.192;24.326;2022-11-15T09:21:06;18.63;;;15.10;;
12429;SDS011;6279;42.192;24.326;2022-11-15T09:23:32;16.37;;;14.70;;
12429;SDS011;6279;42.192;24.326;2022-11-15T09:26:01;16.53;;;14.80;;
12429;SDS011;6279;42.192;24.326;2022-11-15T09:28:28;16.70;;;14.87;;
12429;SDS011;6279;42.192;24.326;2022-11-15T09:31:01;18.27;;;16.37;;
12429;SDS011;6279;42.192;24.326;2022-11-15T09:33:29;17.77;;;14.77;;
12429;SDS011;6279;42.192;24.326;2022-11-15T09:35:59;16.90;;;15.10;;
12429;SDS011;6279;42.192;24.326;2022-11-15T09:38:28;15.87;;;14.10;;
12429;SDS011;6279;42.192;24.326;2022-11-15T09:40:58;18.73;;;15.30;;
12429;SDS011;6279;42.192;24.326;2022-11-15T09:48:59;18.77;;;16.00;;
12429;SDS011;6279;42.192;24.326;2022-11-15T09:51:39;17.50;;;14.93;;
12429;SDS011;6279;42.192;24.326;2022-11-15T10:05:20;18.30;;;16.23;;
12429;SDS011;6279;42.192;24.326;2022-11-15T10:13:06;19.87;;;17.10;;
12429;SDS011;6279;42.192;24.326;2022-11-15T10:15:38;19.73;;;16.57;;
12429;SDS011;6279;42.192;24.326;2022-11-15T10:20:48;18.67;;;15.23;;
12429;SDS011;6279;42.192;24.326;2022-11-15T10:23:19;20.33;;;17.40;;
12429;SDS011;6279;42.192;24.326;2022-11-15T10:25:46;22.27;;;17.20;;
12429;SDS011;6279;42.192;24.326;2022-11-15T10:30:50;21.43;;;17.77;;
12429;SDS011;6279;42.192;24.326;2022-11-15T10:33:36;24.17;;;18.97;;
12429;SDS011;6279;42.192;24.326;2022-11-15T10:43:44;20.97;;;17.73;;
12429;SDS011;6279;42.192;24.326;2022-11-15T10:46:20;23.33;;;18.90;;
12429;SDS011;6279;42.192;24.326;2022-11-15T10:48:47;23.53;;;18.97;;
12429;SDS011;6279;42.192;24.326;2022-11-15T10:51:23;29.93;;;21.77;;
12429;SDS011;6279;42.192;24.326;2022-11-15T10:53:53;23.50;;;17.10;;
12429;SDS011;6279;42.192;24.326;2022-11-15T10:56:21;23.13;;;17.90;;
12429;SDS011;6279;42.192;24.326;2022-11-15T10:58:53;21.77;;;17.37;;
12429;SDS011;6279;42.192;24.326;2022-11-15T11:01:27;20.73;;;16.60;;
12429;SDS011;6279;42.192;24.326;2022-11-15T11:06:25;26.80;;;21.83;;
12429;SDS011;6279;42.192;24.326;2022-11-15T11:08:55;23.43;;;18.13;;
12429;SDS011;6279;42.192;24.326;2022-11-15T11:11:24;27.30;;;19.03;;
12429;SDS011;6279;42.192;24.326;2022-11-15T11:13:50;23.50;;;18.80;;
12429;SDS011;6279;42.192;24.326;2022-11-15T11:16:18;25.10;;;18.40;;
12429;SDS011;6279;42.192;24.326;2022-11-15T11:21:25;23.07;;;18.30;;
12429;SDS011;6279;42.192;24.326;2022-11-15T11:26:59;22.10;;;18.00;;
12429;SDS011;6279;42.192;24.326;2022-11-15T11:29:53;21.30;;;17.87;;
12429;SDS011;6279;42.192;24.326;2022-11-15T11:35:13;23.57;;;18.27;;
12429;SDS011;6279;42.192;24.326;2022-11-15T11:51:16;23.63;;;18.57;;
12429;SDS011;6279;42.192;24.326;2022-11-15T11:53:55;22.47;;;16.93;;
12429;SDS011;6279;42.192;24.326;2022-11-15T11:56:34;21.80;;;17.40;;
12429;SDS011;6279;42.192;24.326;2022-11-15T12:02:17;22.97;;;17.90;;
12429;SDS011;6279;42.192;24.326;2022-11-15T12:04:51;22.13;;;17.10;;
12429;SDS011;6279;42.192;24.326;2022-11-15T12:07:24;25.23;;;19.03;;
12429;SDS011;6279;42.192;24.326;2022-11-15T12:12:44;25.70;;;19.30;;
12429;SDS011;6279;42.192;24.326;2022-11-15T12:15:16;23.90;;;18.10;;
12429;SDS011;6279;42.192;24.326;2022-11-15T12:17:46;25.20;;;19.23;;
12429;SDS011;6279;42.192;24.326;2022-11-15T12:20:19;22.53;;;18.03;;
12429;SDS011;6279;42.192;24.326;2022-11-15T12:22:49;22.97;;;17.70;;
12429;SDS011;6279;42.192;24.326;2022-11-15T12:31:02;26.13;;;20.83;;
12429;SDS011;6279;42.192;24.326;2022-11-15T12:33:39;27.83;;;20.90;;
12429;SDS011;6279;42.192;24.326;2022-11-15T12:38:51;25.97;;;19.60;;
12429;SDS011;6279;42.192;24.326;2022-11-15T12:41:18;28.63;;;20.00;;
12429;SDS011;6279;42.192;24.326;2022-11-15T12:43:46;26.90;;;20.90;;
12429;SDS011;6279;42.192;24.326;2022-11-15T12:49:03;25.87;;;20.63;;
12429;SDS011;6279;42.192;24.326;2022-11-15T13:02:18;27.97;;;19.93;;
12429;SDS011;6279;42.192;24.326;2022-11-15T13:04:46;23.10;;;18.27;;
12429;SDS011;6279;42.192;24.326;2022-11-15T13:17:47;24.93;;;17.70;;
12429;SDS011;6279;42.192;24.326;2022-11-15T13:35:46;21.03;;;17.30;;
12429;SDS011;6279;42.192;24.326;2022-11-15T13:38:27;24.77;;;18.93;;
12429;SDS011;6279;42.192;24.326;2022-11-15T13:40:55;25.17;;;19.60;;
12429;SDS011;6279;42.192;24.326;2022-11-15T13:48:34;21.30;;;17.90;;
12429;SDS011;6279;42.192;24.326;2022-11-15T13:51:00;22.37;;;18.27;;
12429;SDS011;6279;42.192;24.326;2022-11-15T13:53:30;26.23;;;20.37;;
12429;SDS011;6279;42.192;24.326;2022-11-15T13:55:57;27.70;;;20.13;;
12429;SDS011;6279;42.192;24.326;2022-11-15T13:58:23;26.40;;;19.67;;
12429;SDS011;6279;42.192;24.326;2022-11-15T14:00:49;27.50;;;20.30;;
12429;SDS011;6279;42.192;24.326;2022-11-15T14:03:27;25.80;;;20.80;;
12429;SDS011;6279;42.192;24.326;2022-11-15T14:08:32;26.63;;;21.53;;
12429;SDS011;6279;42.192;24.326;2022-11-15T14:11:17;27.73;;;20.63;;
12429;SDS011;6279;42.192;24.326;2022-11-15T14:14:02;31.43;;;23.60;;
12429;SDS011;6279;42.192;24.326;2022-11-15T14:16:38;35.10;;;23.43;;
12429;SDS011;6279;42.192;24.326;2022-11-15T14:19:04;30.73;;;22.93;;
12429;SDS011;6279;42.192;24.326;2022-11-15T14:21:31;30.67;;;22.80;;
12429;SDS011;6279;42.192;24.326;2022-11-15T14:24:30;34.97;;;25.70;;
12429;SDS011;6279;42.192;24.326;2022-11-15T14:26:54;35.57;;;26.07;;
12429;SDS011;6279;42.192;24.326;2022-11-15T14:29:29;34.77;;;25.27;;
12429;SDS011;6279;42.192;24.326;2022-11-15T14:34:54;31.20;;;23.17;;
12429;SDS011;6279;42.192;24.326;2022-11-15T14:37:31;34.27;;;26.40;;
12429;SDS011;6279;42.192;24.326;2022-11-15T14:40:03;35.17;;;26.23;;
12429;SDS011;6279;42.192;24.326;2022-11-15T14:42:30;39.97;;;27.80;;
12429;SDS011;6279;42.192;24.326;2022-11-15T14:44:56;37.30;;;28.50;;
12429;SDS011;6279;42.192;24.326;2022-11-15T14:47:21;37.67;;;28.80;;
12429;SDS011;6279;42.192;24.326;2022-11-15T14:49:47;47.60;;;31.30;;
12429;SDS011;6279;42.192;24.326;2022-11-15T14:52:26;41.67;;;30.70;;
12429;SDS011;6279;42.192;24.326;2022-11-15T14:54:54;43.63;;;30.93;;
12429;SDS011;6279;42.192;24.326;2022-11-15T14:57:24;46.30;;;28.70;;
12429;SDS011;6279;42.192;24.326;2022-11-15T14:59:49;40.93;;;29.23;;
12429;SDS011;6279;42.192;24.326;2022-11-15T15:02:19;49.93;;;33.23;;
12429;SDS011;6279;42.192;24.326;2022-11-15T15:04:46;58.97;;;37.57;;
12429;SDS011;6279;42.192;24.326;2022-11-15T15:07:11;82.33;;;48.37;;
12429;SDS011;6279;42.192;24.326;2022-11-15T15:09:37;70.47;;;44.07;;
12429;SDS011;6279;42.192;24.326;2022-11-15T15:12:03;51.70;;;35.03;;
12429;SDS011;6279;42.192;24.326;2022-11-15T15:14:29;43.90;;;30.27;;
12429;SDS011;6279;42.192;24.326;2022-11-15T15:16:54;43.77;;;32.23;;
12429;SDS011;6279;42.192;24.326;2022-11-15T15:19:19;46.30;;;31.63;;
12429;SDS011;6279;42.192;24.326;2022-11-15T15:21:45;49.17;;;32.37;;
12429;SDS011;6279;42.192;24.326;2022-11-15T15:24:13;43.10;;;29.90;;
12429;SDS011;6279;42.192;24.326;2022-11-15T15:26:40;44.30;;;31.47;;
12429;SDS011;6279;42.192;24.326;2022-11-15T15:29:05;44.53;;;32.10;;
12429;SDS011;6279;42.192;24.326;2022-11-15T15:31:31;43.03;;;30.33;;
12429;SDS011;6279;42.192;24.326;2022-11-15T15:33:58;47.50;;;33.10;;
12429;SDS011;6279;42.192;24.326;2022-11-15T15:36:23;43.77;;;31.90;;
12429;SDS011;6279;42.192;24.326;2022-11-15T15:38:48;48.97;;;32.67;;
12429;SDS011;6279;42.192;24.326;2022-11-15T15:41:15;52.93;;;37.40;;
12429;SDS011;6279;42.192;24.326;2022-11-15T15:43:41;62.87;;;39.40;;
12429;SDS011;6279;42.192;24.326;2022-11-15T15:46:10;54.13;;;38.10;;
12429;SDS011;6279;42.192;24.326;2022-11-15T15:48:38;62.67;;;42.67;;
12429;SDS011;6279;42.192;24.326;2022-11-15T15:51:04;58.47;;;40.77;;
12429;SDS011;6279;42.192;24.326;2022-11-15T15:53:30;56.70;;;39.00;;
12429;SDS011;6279;42.192;24.326;2022-11-15T15:55:56;55.53;;;39.17;;
12429;SDS011;6279;42.192;24.326;2022-11-15T15:58:21;54.53;;;39.60;;
12429;SDS011;6279;42.192;24.326;2022-11-15T16:00:47;57.97;;;40.57;;
12429;SDS011;6279;42.192;24.326;2022-11-15T16:03:12;58.23;;;38.87;;
12429;SDS011;6279;42.192;24.326;2022-11-15T16:05:37;52.43;;;37.40;;
12429;SDS011;6279;42.192;24.326;2022-11-15T16:08:03;55.80;;;37.83;;
12429;SDS011;6279;42.192;24.326;2022-11-15T16:10:30;47.37;;;33.60;;
12429;SDS011;6279;42.192;24.326;2022-11-15T16:12:58;54.83;;;36.20;;
12429;SDS011;6279;42.192;24.326;2022-11-15T16:15:24;62.90;;;42.83;;
12429;SDS011;6279;42.192;24.326;2022-11-15T16:17:57;60.93;;;43.40;;
12429;SDS011;6279;42.192;24.326;2022-11-15T16:20:31;58.23;;;41.70;;
12429;SDS011;6279;42.192;24.326;2022-11-15T16:22:59;57.40;;;38.50;;
12429;SDS011;6279;42.192;24.326;2022-11-15T16:25:25;58.63;;;37.83;;
12429;SDS011;6279;42.192;24.326;2022-11-15T16:27:51;51.80;;;35.80;;
12429;SDS011;6279;42.192;24.326;2022-11-15T16:30:18;47.23;;;33.23;;
12429;SDS011;6279;42.192;24.326;2022-11-15T16:32:44;51.83;;;34.40;;
12429;SDS011;6279;42.192;24.326;2022-11-15T16:35:11;51.00;;;36.13;;
12429;SDS011;6279;42.192;24.326;2022-11-15T16:37:37;50.93;;;34.47;;
12429;SDS011;6279;42.192;24.326;2022-11-15T16:40:10;47.40;;;32.23;;
12429;SDS011;6279;42.192;24.326;2022-11-15T16:42:45;50.83;;;33.27;;
12429;SDS011;6279;42.192;24.326;2022-11-15T16:45:11;50.00;;;32.70;;
12429;SDS011;6279;42.192;24.326;2022-11-15T16:47:38;52.53;;;33.40;;
12429;SDS011;6279;42.192;24.326;2022-11-15T16:50:04;49.57;;;33.07;;
12429;SDS011;6279;42.192;24.326;2022-11-15T16:52:30;56.50;;;37.00;;
12429;SDS011;6279;42.192;24.326;2022-11-15T16:54:55;56.17;;;37.83;;
12429;SDS011;6279;42.192;24.326;2022-11-15T16:57:20;59.20;;;37.20;;
12429;SDS011;6279;42.192;24.326;2022-11-15T16:59:46;57.83;;;37.07;;
12429;SDS011;6279;42.192;24.326;2022-11-15T17:02:11;63.37;;;37.27;;
12429;SDS011;6279;42.192;24.326;2022-11-15T17:04:37;64.63;;;40.53;;
12429;SDS011;6279;42.192;24.326;2022-11-15T17:07:03;85.03;;;50.07;;